METAR Data
IDs: Format: Raw Decoded Include TAF

Data at: 0029 UTC 19 Nov 2018

METAR for:PADK (Adak (NAS), AK, US)
Text:PADK 182356Z AUTO 23019G25KT 10SM BKN023 BKN030 OVC100 07/03 A3020 RMK AO2 SLP228 T00670028 10072 20028 58007
Temperature: 6.7°C ( 44°F)
Dewpoint: 2.8°C ( 37°F) [RH = 76%]
Pressure (altimeter):30.20 inches Hg (1022.8 mb) [Sea level pressure: 1022.8 mb]
Winds:from the SW (230 degrees) at 22 MPH (19 knots; 9.8 m/s) gusting to 29 MPH (25 knots; 12.9 m/s)
Visibility:10 or more sm (16+ km)
Ceiling:2300 feet AGL
Clouds: broken clouds at 2300 feet AGL, broken clouds at 3000 feet AGL, overcast cloud deck at 10000 feet AGL
QC Flag:automated observation with no human augmentation
Text:PADK 182256Z AUTO 23016KT 10SM FEW046 OVC100 06/02 A3021 RMK AO2 SLP231 T00610022
Temperature: 6.1°C ( 43°F)
Dewpoint: 2.2°C ( 36°F) [RH = 76%]
Pressure (altimeter):30.21 inches Hg (1023.1 mb) [Sea level pressure: 1023.1 mb]
Winds:from the SW (230 degrees) at 18 MPH (16 knots; 8.2 m/s)
Visibility:10 or more sm (16+ km)
Ceiling:10000 feet AGL
Clouds: few clouds at 4600 feet AGL, overcast cloud deck at 10000 feet AGL
QC Flag:automated observation with no human augmentation
Text:PADK 182156Z AUTO 25011KT 10SM CLR 06/02 A3022 RMK AO2 SLP235 T00560022
Temperature: 5.6°C ( 42°F)
Dewpoint: 2.2°C ( 36°F) [RH = 79%]
Pressure (altimeter):30.22 inches Hg (1023.5 mb) [Sea level pressure: 1023.5 mb]
Winds:from the WSW (250 degrees) at 13 MPH (11 knots; 5.7 m/s)
Visibility:10 or more sm (16+ km)
Ceiling:at least 12,000 feet AGL
Clouds:sky clear below 12,000 feet AGL
QC Flag:automated observation with no human augmentation
Text:PADK 182056Z AUTO 25009KT 10SM CLR 04/01 A3023 RMK AO2 SLP235 T00390011 51009
Temperature: 3.9°C ( 39°F)
Dewpoint: 1.1°C ( 34°F) [RH = 82%]
Pressure (altimeter):30.23 inches Hg (1023.8 mb) [Sea level pressure: 1023.5 mb]
Winds:from the WSW (250 degrees) at 10 MPH (9 knots; 4.6 m/s)
Visibility:10 or more sm (16+ km)
Ceiling:at least 12,000 feet AGL
Clouds:sky clear below 12,000 feet AGL
QC Flag:automated observation with no human augmentation
Text:PADK 181956Z AUTO 25008KT 10SM FEW034 OVC042 04/01 A3022 RMK AO2 SLP233 T00390006
Temperature: 3.9°C ( 39°F)
Dewpoint: 0.6°C ( 33°F) [RH = 79%]
Pressure (altimeter):30.22 inches Hg (1023.5 mb) [Sea level pressure: 1023.3 mb]
Winds:from the WSW (250 degrees) at 9 MPH (8 knots; 4.1 m/s)
Visibility:10 or more sm (16+ km)
Ceiling:4200 feet AGL
Clouds: few clouds at 3400 feet AGL, overcast cloud deck at 4200 feet AGL
QC Flag:automated observation with no human augmentation
Text:PADK 181856Z AUTO 25010KT 10SM OVC042 03/00 A3021 RMK AO2 SLP231 T00330000
Temperature: 3.3°C ( 38°F)
Dewpoint: 0.0°C ( 32°F) [RH = 79%]
Pressure (altimeter):30.21 inches Hg (1023.1 mb) [Sea level pressure: 1023.1 mb]
Winds:from the WSW (250 degrees) at 12 MPH (10 knots; 5.1 m/s)
Visibility:10 or more sm (16+ km)
Ceiling:4200 feet AGL
Clouds: overcast cloud deck at 4200 feet AGL
QC Flag:automated observation with no human augmentation

TAF for:PADK (Adak (NAS), AK, US)
Text:No data found